Time;durP1;ratioP1;P1;durP2;ratioP2;P2;SDS_P1;SDS_P2;PMS_P1;PMS_P2;Temp;Humidity;BMP_temperature;BMP_pressure;BME280_temperature;BME280_humidity;BME280_pressure;Samples;Min_cycle;Max_cycle;Signal;HPM_P1;HPM_P2
2022/09/06 00:00:15;;;;;;;7.43;3.63;;;19.80;97.10;;;;;;5056314;28;20037;-73
2022/09/06 00:02:42;;;;;;;8.98;3.75;;;19.70;97.00;;;;;;5056824;28;20056;-74
2022/09/06 00:05:08;;;;;;;5.82;3.30;;;19.70;97.00;;;;;;5056527;28;20037;-73
2022/09/06 00:07:35;;;;;;;5.57;3.53;;;19.50;97.00;;;;;;5056609;28;20074;-73
2022/09/06 00:10:00;;;;;;;5.97;3.83;;;19.60;97.10;;;;;;5056361;28;20055;-74
2022/09/06 00:12:27;;;;;;;10.02;3.60;;;19.60;97.20;;;;;;5056061;28;20361;-74
2022/09/06 00:14:53;;;;;;;9.00;3.70;;;19.60;97.10;;;;;;5055763;28;20182;-73
2022/09/06 00:17:19;;;;;;;7.68;3.80;;;19.60;97.10;;;;;;5056649;28;20156;-75
2022/09/06 00:19:44;;;;;;;8.95;3.85;;;19.60;97.10;;;;;;5038838;28;20061;-73
2022/09/06 00:22:10;;;;;;;10.07;3.85;;;19.50;97.10;;;;;;5038735;28;20055;-73
2022/09/06 00:24:36;;;;;;;8.43;3.75;;;19.50;97.10;;;;;;5056211;28;20345;-74
2022/09/06 00:27:06;;;;;;;8.10;3.63;;;19.40;97.10;;;;;;5055311;28;20123;-74
2022/09/06 00:29:32;;;;;;;5.97;3.67;;;19.40;97.20;;;;;;5038756;28;20128;-73
2022/09/06 00:31:58;;;;;;;5.53;3.70;;;19.40;97.20;;;;;;5055968;28;20037;-73
2022/09/06 00:34:25;;;;;;;5.05;3.42;;;19.30;97.30;;;;;;5038041;28;20048;-73
2022/09/06 00:36:50;;;;;;;7.07;3.83;;;19.30;97.30;;;;;;5055856;28;20036;-73
2022/09/06 00:39:16;;;;;;;9.75;3.85;;;19.30;97.30;;;;;;5055649;28;20140;-73
2022/09/06 00:41:41;;;;;;;6.22;3.65;;;19.20;97.40;;;;;;5036752;28;20072;-73
2022/09/06 00:44:07;;;;;;;4.95;3.45;;;19.20;97.50;;;;;;5055821;28;20036;-73
2022/09/06 00:46:34;;;;;;;5.35;3.95;;;19.20;97.60;;;;;;5055921;28;20055;-73
2022/09/06 00:49:03;;;;;;;8.15;3.58;;;19.00;97.60;;;;;;5055687;28;20045;-74
2022/09/06 00:51:30;;;;;;;7.15;4.07;;;19.10;97.70;;;;;;5054916;28;20048;-73
2022/09/06 00:53:57;;;;;;;12.40;4.35;;;19.10;97.70;;;;;;5055590;28;20131;-73
2022/09/06 00:56:25;;;;;;;7.15;4.05;;;19.00;97.80;;;;;;5055328;28;20045;-73
2022/09/06 00:58:50;;;;;;;6.05;3.80;;;19.00;97.80;;;;;;5055687;28;20045;-74
2022/09/06 01:01:16;;;;;;;5.13;4.10;;;19.00;97.90;;;;;;5055548;28;20045;-73
2022/09/06 01:03:42;;;;;;;6.00;3.97;;;18.90;97.90;;;;;;5055013;28;20040;-72
2022/09/06 01:06:16;;;;;;;8.20;4.00;;;18.90;97.90;;;;;;5054980;28;20041;-73
2022/09/06 01:09:09;;;;;;;7.07;4.28;;;18.80;97.90;;;;;;5055008;28;20056;-74
2022/09/06 01:12:15;;;;;;;11.87;4.07;;;18.80;98.10;;;;;;5055296;28;20072;-73
2022/09/06 01:14:50;;;;;;;5.40;4.05;;;18.80;98.40;;;;;;5024740;28;20386;-74
2022/09/06 01:17:44;;;;;;;7.25;3.85;;;18.80;98.20;;;;;;5054759;28;20156;-74
2022/09/06 01:20:15;;;;;;;8.52;3.72;;;18.70;98.30;;;;;;5054750;28;20089;-73
2022/09/06 01:22:50;;;;;;;5.03;3.42;;;18.70;98.30;;;;;;5054689;28;20048;-73
2022/09/06 01:25:51;;;;;;;5.03;3.70;;;18.70;98.30;;;;;;5054961;28;20051;-73
2022/09/06 01:28:28;;;;;;;9.75;3.70;;;18.70;98.40;;;;;;5052041;28;20114;-73
2022/09/06 01:31:29;;;;;;;5.57;3.88;;;18.70;98.40;;;;;;5037613;28;20361;-74
2022/09/06 01:34:07;;;;;;;5.68;3.95;;;18.70;98.90;;;;;;5054849;28;20056;-72
2022/09/06 01:36:46;;;;;;;5.10;3.88;;;18.60;98.70;;;;;;5054944;28;20049;-74
2022/09/06 01:39:21;;;;;;;5.63;4.10;;;18.60;98.60;;;;;;5054923;28;20057;-72
2022/09/06 01:41:47;;;;;;;6.50;3.85;;;18.60;98.50;;;;;;5054799;28;20047;-74
2022/09/06 01:44:13;;;;;;;6.95;4.00;;;18.70;98.60;;;;;;5054750;28;20044;-73
2022/09/06 01:46:50;;;;;;;5.28;3.45;;;18.70;98.60;;;;;;5054634;28;20045;-74
2022/09/06 01:49:37;;;;;;;7.13;3.75;;;18.70;98.50;;;;;;5054983;28;20053;-73
2022/09/06 01:52:13;;;;;;;7.70;4.00;;;18.60;98.50;;;;;;5056343;28;20373;-73
2022/09/06 01:55:06;;;;;;;6.22;3.88;;;18.70;98.70;;;;;;5041289;28;20473;-74
2022/09/06 01:58:04;;;;;;;8.40;3.50;;;18.70;98.60;;;;;;5059120;28;20053;-74
2022/09/06 02:00:36;;;;;;;9.40;4.05;;;18.60;98.60;;;;;;5058587;28;20084;-73
2022/09/06 02:03:30;;;;;;;5.13;3.83;;;18.60;98.60;;;;;;5058604;28;20080;-75
2022/09/06 02:06:02;;;;;;;7.55;3.97;;;18.60;98.60;;;;;;5059104;28;20056;-73
2022/09/06 02:08:43;;;;;;;5.57;3.85;;;18.60;98.60;;;;;;5058793;28;20129;-73
2022/09/06 02:11:09;;;;;;;6.15;3.83;;;18.60;98.70;;;;;;5058892;28;20048;-73
2022/09/06 02:13:42;;;;;;;5.63;3.72;;;18.60;98.60;;;;;;5041192;28;20068;-73
2022/09/06 02:16:12;;;;;;;8.73;4.18;;;18.60;98.70;;;;;;5058015;28;20040;-75
2022/09/06 02:18:45;;;;;;;10.63;4.45;;;18.50;98.70;;;;;;5058592;28;20133;-74
2022/09/06 02:21:13;;;;;;;7.78;4.60;;;18.50;98.70;;;;;;5058824;28;20045;-73
2022/09/06 02:23:41;;;;;;;8.70;3.78;;;18.50;98.70;;;;;;5041001;28;20049;-73
2022/09/06 02:26:12;;;;;;;8.70;4.15;;;18.60;98.80;;;;;;5058577;28;20427;-74
2022/09/06 02:28:39;;;;;;;8.95;4.13;;;18.50;98.80;;;;;;5058828;28;20045;-75
2022/09/06 02:31:15;;;;;;;6.28;3.88;;;18.50;98.80;;;;;;5057564;28;20154;-74
2022/09/06 02:33:44;;;;;;;6.55;3.75;;;18.50;98.80;;;;;;5058403;28;20453;-73
2022/09/06 02:36:10;;;;;;;5.53;3.92;;;18.40;98.80;;;;;;5040962;28;20377;-73
2022/09/06 02:38:38;;;;;;;6.03;3.67;;;18.50;98.80;;;;;;5058113;28;20060;-74
2022/09/06 02:41:05;;;;;;;7.43;3.97;;;18.50;98.80;;;;;;5057940;28;20045;-72
2022/09/06 02:43:30;;;;;;;6.80;4.10;;;18.40;98.80;;;;;;5058081;28;20424;-73
2022/09/06 02:45:56;;;;;;;5.32;4.00;;;18.40;98.90;;;;;;5057855;28;20072;-73
2022/09/06 02:48:22;;;;;;;4.95;4.07;;;18.40;99.00;;;;;;5057971;28;20045;-73
2022/09/06 02:50:47;;;;;;;11.07;4.13;;;18.40;98.90;;;;;;5039919;28;20051;-73
2022/09/06 02:53:14;;;;;;;8.93;4.05;;;18.40;99.00;;;;;;5058122;28;20060;-74
2022/09/06 02:55:40;;;;;;;5.93;3.97;;;18.30;99.00;;;;;;5057856;28;20118;-73
2022/09/06 02:58:08;;;;;;;6.82;4.05;;;18.40;99.00;;;;;;5040167;28;20445;-74
2022/09/06 03:00:33;;;;;;;10.35;4.32;;;18.30;99.10;;;;;;5057670;28;20047;-73
2022/09/06 03:02:59;;;;;;;7.90;4.05;;;18.30;99.10;;;;;;5055820;28;20129;-74
2022/09/06 03:05:26;;;;;;;6.10;3.97;;;18.30;99.10;;;;;;5040919;28;20049;-73
2022/09/06 03:07:53;;;;;;;8.85;4.72;;;18.30;99.20;;;;;;5057476;28;20076;-73
2022/09/06 03:10:19;;;;;;;5.93;4.18;;;18.20;99.20;;;;;;5057506;28;20055;-74
2022/09/06 03:12:45;;;;;;;6.75;4.32;;;18.20;99.20;;;;;;5057522;28;20037;-73
2022/09/06 03:15:13;;;;;;;8.82;4.55;;;18.10;99.30;;;;;;5057375;28;20186;-73
2022/09/06 03:17:39;;;;;;;7.32;4.50;;;18.20;99.40;;;;;;5056768;28;20052;-74
2022/09/06 03:20:05;;;;;;;6.75;4.95;;;18.20;99.50;;;;;;5057963;28;20437;-74
2022/09/06 03:22:31;;;;;;;7.07;4.57;;;18.20;99.50;;;;;;5040529;28;20041;-74
2022/09/06 03:24:56;;;;;;;11.32;4.50;;;18.10;99.50;;;;;;5057089;28;20059;-74
2022/09/06 03:27:23;;;;;;;8.27;4.75;;;18.10;99.50;;;;;;5057362;28;20045;-74
2022/09/06 03:29:48;;;;;;;9.65;4.60;;;18.20;99.70;;;;;;5057143;28;20068;-75
2022/09/06 03:32:14;;;;;;;8.85;4.60;;;18.20;99.70;;;;;;5057163;28;20049;-73
2022/09/06 03:34:40;;;;;;;7.82;4.53;;;18.20;99.70;;;;;;5056921;28;20107;-73
2022/09/06 03:37:06;;;;;;;6.05;4.35;;;18.20;99.70;;;;;;5040105;28;20052;-73
2022/09/06 03:39:31;;;;;;;8.25;4.55;;;18.10;99.90;;;;;;5056905;28;20063;-74
2022/09/06 03:41:57;;;;;;;6.32;4.90;;;18.20;99.80;;;;;;5039843;28;20132;-74
2022/09/06 03:44:23;;;;;;;9.52;4.85;;;18.10;99.80;;;;;;5056734;28;20079;-73
2022/09/06 03:46:50;;;;;;;5.80;4.32;;;18.10;99.80;;;;;;5056552;28;20049;-72
2022/09/06 03:49:15;;;;;;;7.10;4.90;;;18.10;99.90;;;;;;5056594;28;20049;-72
2022/09/06 03:51:41;;;;;;;5.35;4.32;;;18.10;99.80;;;;;;5056693;28;20063;-73
2022/09/06 03:54:07;;;;;;;7.68;4.70;;;18.10;99.90;;;;;;5057279;28;20052;-73
2022/09/06 03:56:32;;;;;;;8.40;5.45;;;18.00;99.90;;;;;;5056605;28;20088;-73
2022/09/06 03:58:58;;;;;;;7.57;5.05;;;18.10;99.90;;;;;;5006399;28;20462;-73
2022/09/06 04:01:24;;;;;;;10.50;4.70;;;18.10;99.90;;;;;;5056195;28;20179;-74
2022/09/06 04:03:49;;;;;;;6.38;4.70;;;18.20;99.90;;;;;;5038861;28;20040;-72
2022/09/06 04:06:15;;;;;;;10.32;4.72;;;18.10;99.90;;;;;;5055733;28;20469;-73
2022/09/06 04:08:40;;;;;;;6.50;4.60;;;18.10;99.90;;;;;;5056034;28;20116;-72
2022/09/06 04:11:06;;;;;;;8.20;4.72;;;18.20;99.90;;;;;;5055913;28;20120;-73
2022/09/06 04:13:32;;;;;;;13.35;4.95;;;18.10;99.90;;;;;;5056658;28;20456;-72
2022/09/06 04:15:58;;;;;;;8.73;5.53;;;18.00;99.90;;;;;;5055709;28;20415;-73
2022/09/06 04:18:24;;;;;;;7.15;4.80;;;18.10;99.90;;;;;;5056566;28;20045;-74
2022/09/06 04:20:52;;;;;;;9.45;5.05;;;18.10;99.90;;;;;;5056572;28;20135;-73
2022/09/06 04:23:19;;;;;;;5.53;4.38;;;18.20;99.90;;;;;;5056557;28;20362;-73
2022/09/06 04:25:46;;;;;;;8.68;5.45;;;18.00;99.90;;;;;;5056180;28;20036;-73
2022/09/06 04:28:12;;;;;;;8.60;5.03;;;18.10;99.90;;;;;;5055994;28;20036;-73
2022/09/06 04:30:37;;;;;;;8.90;5.50;;;18.20;99.90;;;;;;5056156;28;20102;-73
2022/09/06 04:33:03;;;;;;;5.75;4.97;;;18.10;99.90;;;;;;5056377;28;20041;-74
2022/09/06 04:35:28;;;;;;;10.27;5.25;;;18.10;99.90;;;;;;5038879;28;20053;-74
2022/09/06 04:37:54;;;;;;;6.40;5.38;;;18.10;99.90;;;;;;5055247;28;20049;-72
2022/09/06 04:40:19;;;;;;;8.05;5.68;;;18.10;99.90;;;;;;5038074;28;20457;-73
2022/09/06 04:42:45;;;;;;;6.53;4.65;;;18.10;99.90;;;;;;5056190;28;20041;-74
2022/09/06 04:45:10;;;;;;;6.13;5.00;;;18.10;99.90;;;;;;5055652;28;20102;-74
2022/09/06 04:47:36;;;;;;;6.43;5.30;;;18.10;99.90;;;;;;5055547;28;20048;-73
2022/09/06 04:50:02;;;;;;;6.38;5.15;;;18.10;99.90;;;;;;5055893;28;20084;-70
2022/09/06 04:52:28;;;;;;;7.00;5.38;;;18.10;99.90;;;;;;5055151;28;20045;-72
2022/09/06 04:54:53;;;;;;;7.90;5.38;;;18.10;99.90;;;;;;5055650;28;20048;-73
2022/09/06 04:57:19;;;;;;;10.43;5.65;;;18.10;99.90;;;;;;5055634;28;20098;-72
2022/09/06 04:59:44;;;;;;;6.30;5.15;;;18.10;99.90;;;;;;5055510;28;20037;-75
2022/09/06 05:02:10;;;;;;;10.55;6.30;;;18.10;99.90;;;;;;5055127;28;20045;-73
2022/09/06 05:04:36;;;;;;;9.27;6.28;;;18.00;99.90;;;;;;5055289;28;20052;-72
2022/09/06 05:07:07;;;;;;;9.82;6.50;;;18.00;99.90;;;;;;5021692;28;20457;-74
2022/09/06 05:09:33;;;;;;;8.90;6.00;;;17.90;99.90;;;;;;5037489;28;20036;-74
2022/09/06 05:11:59;;;;;;;8.38;5.78;;;17.90;99.90;;;;;;5055061;28;20106;-73
2022/09/06 05:14:26;;;;;;;9.90;5.85;;;17.90;99.90;;;;;;5037519;28;20132;-74
2022/09/06 05:16:53;;;;;;;6.90;5.60;;;17.90;99.90;;;;;;5037683;28;20056;-74
2022/09/06 05:19:18;;;;;;;8.32;6.53;;;17.90;99.90;;;;;;5054880;28;20483;-73
2022/09/06 05:21:44;;;;;;;13.23;6.50;;;17.90;99.90;;;;;;5037242;28;20037;-74
2022/09/06 05:24:10;;;;;;;8.88;6.25;;;17.80;99.90;;;;;;5037629;28;20145;-73
2022/09/06 05:26:36;;;;;;;9.20;6.18;;;17.80;99.90;;;;;;5054548;28;20084;-74
2022/09/06 05:29:01;;;;;;;7.65;5.88;;;17.90;99.90;;;;;;5054996;28;20056;-74
2022/09/06 05:31:29;;;;;;;8.23;5.97;;;17.90;99.90;;;;;;5054964;28;20041;-72
2022/09/06 05:33:56;;;;;;;8.73;6.55;;;17.80;99.90;;;;;;5054896;28;20354;-73
2022/09/06 05:36:23;;;;;;;7.75;6.38;;;17.90;99.90;;;;;;5055162;28;20059;-73
2022/09/06 05:38:50;;;;;;;8.55;6.30;;;17.90;99.90;;;;;;5054533;28;20111;-74
2022/09/06 05:41:15;;;;;;;8.07;6.53;;;17.90;99.90;;;;;;5054788;28;20412;-73
2022/09/06 05:43:41;;;;;;;9.85;6.75;;;17.90;99.90;;;;;;5054782;28;20037;-74
2022/09/06 05:46:07;;;;;;;15.13;7.53;;;17.90;99.90;;;;;;5037528;28;20114;-73
2022/09/06 05:48:32;;;;;;;13.32;6.55;;;17.90;99.90;;;;;;5055005;28;20055;-74
2022/09/06 05:51:00;;;;;;;7.40;6.57;;;17.90;99.90;;;;;;5035983;28;20049;-74
2022/09/06 05:53:25;;;;;;;10.48;7.13;;;17.90;99.90;;;;;;5054404;28;20402;-74
2022/09/06 05:55:51;;;;;;;9.85;7.20;;;17.90;99.90;;;;;;5054165;28;20088;-73
2022/09/06 05:58:16;;;;;;;7.65;6.65;;;18.00;99.90;;;;;;5054513;28;20052;-73
2022/09/06 06:00:42;;;;;;;10.32;6.70;;;17.90;99.90;;;;;;5054357;28;20473;-73
2022/09/06 06:03:08;;;;;;;7.88;6.90;;;17.80;99.90;;;;;;5055133;28;20070;-74
2022/09/06 06:05:33;;;;;;;9.13;6.82;;;18.00;99.90;;;;;;5054737;28;20151;-74
2022/09/06 06:07:59;;;;;;;9.85;6.70;;;18.10;99.90;;;;;;5053783;28;20077;-73
2022/09/06 06:10:24;;;;;;;9.00;6.95;;;18.10;99.90;;;;;;5054741;28;20045;-74
2022/09/06 06:12:50;;;;;;;9.82;7.05;;;18.10;99.90;;;;;;5054572;28;20394;-74
2022/09/06 06:15:16;;;;;;;12.45;7.07;;;18.10;99.90;;;;;;5037023;28;20412;-74
2022/09/06 06:17:41;;;;;;;9.95;7.35;;;18.10;99.90;;;;;;5054575;28;20041;-73
2022/09/06 06:20:07;;;;;;;12.10;7.43;;;18.20;99.90;;;;;;5054512;28;20480;-74
2022/09/06 06:22:33;;;;;;;10.75;7.30;;;18.20;99.90;;;;;;5054557;28;20087;-75
2022/09/06 06:24:58;;;;;;;14.70;7.15;;;18.20;99.90;;;;;;5054041;28;20049;-73
2022/09/06 06:27:24;;;;;;;12.40;7.05;;;18.30;99.90;;;;;;5054159;28;20051;-74
2022/09/06 06:29:51;;;;;;;9.40;6.82;;;18.30;99.90;;;;;;5054229;28;20053;-73
2022/09/06 06:32:16;;;;;;;8.02;6.95;;;18.40;99.90;;;;;;5055058;28;20045;-74
2022/09/06 06:34:42;;;;;;;11.40;7.60;;;18.40;99.90;;;;;;5020459;28;20106;-75
2022/09/06 06:37:08;;;;;;;8.55;5.85;;;18.50;99.90;;;;;;5054211;28;20045;-73
2022/09/06 06:39:33;;;;;;;9.85;6.00;;;18.50;99.90;;;;;;5057706;28;20056;-75
2022/09/06 06:41:59;;;;;;;6.93;5.90;;;18.50;99.90;;;;;;5057912;28;20456;-74
2022/09/06 06:44:27;;;;;;;9.68;6.72;;;18.60;99.90;;;;;;5058197;28;20052;-73
2022/09/06 06:46:52;;;;;;;9.50;7.00;;;18.50;99.90;;;;;;5022869;28;20060;-73
2022/09/06 06:49:18;;;;;;;8.55;7.00;;;18.50;99.90;;;;;;5057632;28;20041;-75
2022/09/06 06:51:43;;;;;;;8.82;6.70;;;18.60;99.90;;;;;;5057978;28;20041;-73
2022/09/06 06:54:09;;;;;;;8.32;6.85;;;18.60;99.90;;;;;;5057583;28;20442;-73
2022/09/06 06:56:44;;;;;;;12.45;7.38;;;18.50;99.90;;;;;;5057950;28;20426;-75
2022/09/06 06:59:10;;;;;;;9.95;7.43;;;18.50;99.90;;;;;;5057547;28;20052;-74
2022/09/06 07:01:36;;;;;;;10.45;7.07;;;18.60;99.90;;;;;;5057559;28;20044;-75
2022/09/06 07:04:02;;;;;;;11.95;8.15;;;18.50;99.90;;;;;;5057712;28;20044;-75
2022/09/06 07:06:29;;;;;;;8.70;6.68;;;18.60;99.90;;;;;;5057575;28;20037;-73
2022/09/06 07:08:58;;;;;;;13.07;8.10;;;18.50;99.90;;;;;;5057427;28;20102;-73
2022/09/06 07:11:23;;;;;;;13.05;7.97;;;18.70;99.90;;;;;;5057428;28;20048;-75
2022/09/06 07:13:49;;;;;;;10.52;7.68;;;18.50;99.90;;;;;;5057613;28;20063;-73
2022/09/06 07:16:18;;;;;;;19.20;8.02;;;18.60;99.90;;;;;;5057233;28;20045;-74
2022/09/06 07:18:44;;;;;;;11.52;7.60;;;18.60;99.90;;;;;;5057498;28;20084;-75
2022/09/06 07:21:15;;;;;;;16.80;8.20;;;18.70;99.90;;;;;;5057252;28;20067;-73
2022/09/06 07:23:42;;;;;;;13.02;7.88;;;18.90;99.90;;;;;;5057154;28;20413;-74
2022/09/06 07:26:13;;;;;;;11.05;8.38;;;18.90;99.90;;;;;;5056969;28;20040;-75
2022/09/06 07:28:38;;;;;;;13.00;8.75;;;19.00;99.90;;;;;;5057186;28;20041;-74
2022/09/06 07:31:04;;;;;;;9.85;7.50;;;19.10;99.90;;;;;;5057390;28;20052;-73
2022/09/06 07:33:30;;;;;;;12.98;8.73;;;19.40;99.90;;;;;;5039817;28;20041;-75
2022/09/06 07:35:57;;;;;;;13.63;9.40;;;19.80;99.90;;;;;;5057184;28;20037;-74
2022/09/06 07:38:23;;;;;;;11.68;9.13;;;20.00;99.90;;;;;;5056633;28;20048;-74
2022/09/06 07:40:53;;;;;;;13.13;8.65;;;20.20;99.90;;;;;;5056785;28;20060;-73
2022/09/06 07:43:19;;;;;;;10.98;8.70;;;20.30;99.90;;;;;;5056874;28;20099;-74
2022/09/06 07:45:44;;;;;;;15.20;9.25;;;20.40;99.90;;;;;;5056879;28;20436;-73
2022/09/06 07:48:10;;;;;;;10.77;7.88;;;20.50;99.90;;;;;;5056707;28;20037;-75
2022/09/06 07:50:35;;;;;;;12.82;8.45;;;20.50;99.90;;;;;;5056327;28;20052;-75
2022/09/06 07:53:08;;;;;;;15.65;9.13;;;20.60;99.90;;;;;;5056081;28;20098;-75
2022/09/06 07:55:34;;;;;;;11.88;8.82;;;20.60;99.90;;;;;;5056453;28;20085;-74
2022/09/06 07:57:59;;;;;;;11.27;9.48;;;20.70;99.90;;;;;;5056849;28;20048;-74
2022/09/06 08:00:25;;;;;;;10.95;8.05;;;20.70;99.90;;;;;;5056593;28;20461;-74
2022/09/06 08:02:50;;;;;;;13.10;8.00;;;20.70;99.90;;;;;;5056649;28;20048;-72
2022/09/06 08:05:16;;;;;;;11.95;9.52;;;20.80;99.90;;;;;;5056518;28;20110;-73
2022/09/06 08:07:41;;;;;;;15.07;8.98;;;20.80;99.90;;;;;;5055890;28;20464;-74
2022/09/06 08:10:07;;;;;;;10.98;8.43;;;20.80;99.90;;;;;;5056312;28;20049;-75
2022/09/06 08:12:33;;;;;;;15.98;9.15;;;20.80;99.90;;;;;;5056641;28;20041;-73
2022/09/06 08:14:58;;;;;;;11.60;8.88;;;20.90;99.90;;;;;;5056163;28;20103;-74
2022/09/06 08:17:24;;;;;;;12.23;8.30;;;21.00;99.90;;;;;;5056434;28;20084;-73
2022/09/06 08:19:49;;;;;;;12.93;8.38;;;21.10;99.90;;;;;;5055985;28;20042;-73
2022/09/06 08:22:15;;;;;;;9.07;7.88;;;21.10;99.90;;;;;;5055713;28;20107;-73
2022/09/06 08:24:41;;;;;;;12.43;8.65;;;21.00;99.90;;;;;;5004854;28;20131;-74
2022/09/06 08:27:06;;;;;;;11.95;8.90;;;21.00;99.90;;;;;;5055859;28;20033;-74
2022/09/06 08:29:33;;;;;;;9.60;7.68;;;21.00;99.90;;;;;;5055635;28;20053;-74
2022/09/06 08:31:59;;;;;;;17.50;9.20;;;20.90;99.90;;;;;;5056062;28;20473;-74
2022/09/06 08:34:24;;;;;;;13.30;7.95;;;21.00;99.90;;;;;;5038273;28;20049;-74
2022/09/06 08:36:50;;;;;;;10.57;8.30;;;21.00;99.90;;;;;;5036957;28;20056;-74
2022/09/06 08:39:16;;;;;;;9.77;8.20;;;21.20;99.90;;;;;;5055963;28;20100;-73
2022/09/06 08:41:50;;;;;;;12.73;8.88;;;21.40;99.90;;;;;;5055616;28;20048;-73
2022/09/06 08:44:35;;;;;;;10.00;8.05;;;21.60;99.90;;;;;;5055789;28;20095;-74
2022/09/06 08:47:10;;;;;;;13.68;8.60;;;21.80;99.90;;;;;;5055631;28;20063;-74
2022/09/06 08:49:51;;;;;;;11.73;8.63;;;22.00;99.90;;;;;;5056174;28;20366;-73
2022/09/06 08:52:54;;;;;;;16.08;8.25;;;22.10;99.90;;;;;;5054578;28;20116;-74
2022/09/06 08:55:23;;;;;;;13.63;8.32;;;22.30;99.90;;;;;;5055531;28;20041;-73
2022/09/06 08:58:09;;;;;;;13.65;8.57;;;22.50;99.90;;;;;;5055617;28;20132;-75
2022/09/06 09:00:37;;;;;;;8.05;7.25;;;22.60;99.90;;;;;;5055268;28;20351;-73
2022/09/06 09:03:07;;;;;;;18.15;8.50;;;22.70;99.90;;;;;;5054287;28;20045;-74
2022/09/06 09:05:35;;;;;;;9.07;7.22;;;22.90;99.90;;;;;;5055084;28;20052;-74
2022/09/06 09:08:26;;;;;;;11.43;7.22;;;23.10;99.90;;;;;;5055349;28;20037;-74
2022/09/06 09:11:04;;;;;;;10.55;6.72;;;23.30;99.00;;;;;;5038375;28;20628;-74
2022/09/06 09:13:53;;;;;;;9.13;6.50;;;23.60;98.70;;;;;;5055248;28;20476;-75
2022/09/06 09:16:20;;;;;;;9.38;5.97;;;24.10;98.60;;;;;;5055121;28;20128;-74
2022/09/06 09:18:50;;;;;;;9.50;6.00;;;24.70;97.70;;;;;;5055085;28;20036;-74
2022/09/06 09:21:20;;;;;;;8.70;5.47;;;25.00;96.40;;;;;;5054653;28;20045;-74
2022/09/06 09:23:52;;;;;;;14.95;6.03;;;25.00;96.50;;;;;;5055434;28;20127;-73
2022/09/06 09:26:19;;;;;;;11.77;5.70;;;25.30;96.30;;;;;;5055029;28;20515;-73
2022/09/06 09:29:13;;;;;;;6.47;5.30;;;25.50;96.40;;;;;;5054966;28;20044;-73
2022/09/06 09:31:50;;;;;;;8.55;5.13;;;25.50;95.60;;;;;;5054911;28;20071;-73
2022/09/06 09:34:34;;;;;;;8.23;4.78;;;25.70;96.20;;;;;;5054787;28;20080;-74
2022/09/06 09:37:22;;;;;;;12.65;5.72;;;25.70;95.30;;;;;;5054771;28;20116;-74
2022/09/06 09:39:52;;;;;;;10.95;5.78;;;25.60;95.40;;;;;;5054437;28;20457;-75
2022/09/06 09:42:35;;;;;;;8.40;5.43;;;25.40;95.70;;;;;;5054530;28;20037;-74
2022/09/06 09:45:21;;;;;;;8.35;5.75;;;25.40;96.10;;;;;;5055085;28;20045;-75
2022/09/06 09:47:47;;;;;;;8.52;5.65;;;25.50;95.20;;;;;;5037508;28;20333;-75
2022/09/06 09:50:28;;;;;;;10.88;5.50;;;25.50;95.50;;;;;;5054181;28;20041;-74
2022/09/06 09:52:54;;;;;;;12.27;5.38;;;25.60;95.30;;;;;;5054512;28;20045;-73
2022/09/06 09:55:24;;;;;;;7.97;5.70;;;25.60;95.60;;;;;;5054839;28;20056;-74
2022/09/06 09:57:53;;;;;;;12.20;5.60;;;25.50;95.40;;;;;;5037106;28;20419;-74
2022/09/06 10:00:38;;;;;;;14.88;6.40;;;25.50;95.70;;;;;;5054681;28;20055;-75
2022/09/06 10:03:12;;;;;;;10.45;6.28;;;25.50;95.40;;;;;;5054075;28;20125;-74
2022/09/06 10:05:39;;;;;;;8.55;5.85;;;25.40;95.40;;;;;;5054508;28;20055;-74
2022/09/06 10:08:11;;;;;;;8.68;6.03;;;25.40;95.70;;;;;;5054283;28;20457;-73
2022/09/06 10:10:46;;;;;;;13.48;6.55;;;25.40;95.70;;;;;;5054984;28;20106;-74
2022/09/06 10:13:29;;;;;;;10.15;6.10;;;25.50;95.60;;;;;;5056458;28;20049;-75
2022/09/06 10:16:02;;;;;;;8.55;5.90;;;25.60;95.10;;;;;;5058445;28;20052;-75
2022/09/06 10:18:35;;;;;;;11.70;7.43;;;25.50;95.50;;;;;;5058413;28;20041;-75
2022/09/06 10:21:21;;;;;;;;;;;25.60;95.20;;;;;;5058707;28;20437;-74
2022/09/06 10:24:10;;;;;;;11.93;7.13;;;25.60;95.10;;;;;;5058550;28;19929;-74
2022/09/06 10:26:54;;;;;;;11.15;6.75;;;25.60;94.90;;;;;;5057928;28;20083;-75
2022/09/06 10:29:36;;;;;;;9.38;6.75;;;25.60;95.20;;;;;;5057882;28;20049;-74
2022/09/06 10:32:31;;;;;;;9.90;6.95;;;25.60;95.30;;;;;;5041080;28;20525;-75
2022/09/06 10:35:09;;;;;;;8.48;6.25;;;25.70;94.80;;;;;;5057959;28;20045;-74
2022/09/06 10:37:45;;;;;;;11.73;6.85;;;25.70;94.60;;;;;;5040285;28;20065;-74
2022/09/06 10:40:21;;;;;;;13.55;6.90;;;25.50;95.10;;;;;;5058033;28;20056;-75
2022/09/06 10:42:52;;;;;;;11.13;6.70;;;25.60;95.30;;;;;;5057992;28;20052;-75
2022/09/06 10:45:20;;;;;;;13.13;7.30;;;25.70;95.40;;;;;;5058149;28;20096;-73
2022/09/06 10:47:55;;;;;;;9.07;5.90;;;25.70;95.00;;;;;;5058655;28;20345;-75
2022/09/06 10:50:40;;;;;;;12.85;7.88;;;25.90;95.30;;;;;;5057969;28;20056;-75
2022/09/06 10:53:20;;;;;;;10.73;7.70;;;25.80;94.90;;;;;;5040004;28;20055;-75
2022/09/06 10:55:56;;;;;;;14.35;7.28;;;25.80;94.90;;;;;;5057725;28;20049;-73
2022/09/06 10:58:27;;;;;;;8.30;6.65;;;25.70;95.10;;;;;;5057443;28;20047;-74
2022/09/06 11:00:54;;;;;;;13.98;7.38;;;25.90;94.90;;;;;;5057893;28;20037;-74
2022/09/06 11:03:34;;;;;;;7.63;6.65;;;25.90;94.70;;;;;;5057895;28;20147;-76
2022/09/06 11:06:07;;;;;;;14.85;7.60;;;25.90;94.90;;;;;;5057345;28;20457;-75
2022/09/06 11:08:47;;;;;;;7.68;6.53;;;25.90;94.70;;;;;;5056916;28;20045;-75
2022/09/06 11:11:38;;;;;;;12.05;5.95;;;26.00;94.90;;;;;;5057380;28;20453;-73
2022/09/06 11:14:10;;;;;;;9.07;6.35;;;26.00;95.10;;;;;;5057450;28;20450;-75
2022/09/06 11:16:47;;;;;;;14.35;6.22;;;26.10;94.50;;;;;;5057126;28;20127;-74
2022/09/06 11:19:20;;;;;;;7.40;5.70;;;26.10;94.30;;;;;;5040213;28;20354;-74
2022/09/06 11:22:11;;;;;;;7.13;5.00;;;26.10;94.30;;;;;;5057327;28;20052;-75
2022/09/06 11:25:19;;;;;;;7.18;4.90;;;26.10;94.20;;;;;;5055993;28;20052;-73
2022/09/06 11:27:51;;;;;;;7.50;4.43;;;26.20;93.60;;;;;;5040609;28;20107;-75
2022/09/06 11:30:17;;;;;;;8.18;5.15;;;26.30;93.30;;;;;;5057126;28;20045;-76
2022/09/06 11:32:49;;;;;;;18.58;4.57;;;26.30;93.40;;;;;;5057166;28;20041;-74
2022/09/06 11:35:21;;;;;;;9.25;4.38;;;26.40;93.90;;;;;;5057139;28;20117;-74
2022/09/06 11:37:56;;;;;;;7.05;4.32;;;26.60;93.50;;;;;;5056459;28;20072;-74
2022/09/06 11:40:27;;;;;;;7.90;4.63;;;26.70;93.00;;;;;;5005457;28;20052;-74
2022/09/06 11:42:52;;;;;;;8.07;4.75;;;26.80;93.10;;;;;;5057098;28;20041;-74
2022/09/06 11:45:40;;;;;;;7.68;4.05;;;26.80;92.90;;;;;;5056899;28;20049;-75
2022/09/06 11:48:24;;;;;;;10.07;4.65;;;26.90;92.80;;;;;;5056728;28;20134;-76
2022/09/06 11:50:52;;;;;;;9.15;4.55;;;26.80;92.40;;;;;;5056977;28;20053;-74
2022/09/06 11:53:19;;;;;;;10.27;4.32;;;26.90;92.70;;;;;;5056449;28;20080;-74
2022/09/06 11:55:45;;;;;;;6.78;4.40;;;26.80;92.40;;;;;;5056775;28;20120;-74
2022/09/06 11:58:17;;;;;;;9.38;3.80;;;26.90;92.70;;;;;;5056858;28;20132;-73
2022/09/06 12:01:06;;;;;;;16.13;4.00;;;26.80;92.50;;;;;;5056862;28;20136;-74
2022/09/06 12:03:47;;;;;;;9.32;4.15;;;27.00;92.90;;;;;;5056356;28;20049;-74
2022/09/06 12:06:34;;;;;;;10.85;3.90;;;27.10;92.40;;;;;;5056216;28;20055;-74
2022/09/06 12:09:00;;;;;;;5.95;3.80;;;27.30;92.50;;;;;;5055946;28;20439;-74
2022/09/06 12:11:35;;;;;;;11.68;3.63;;;27.30;92.40;;;;;;5056090;28;20449;-75
2022/09/06 12:14:05;;;;;;;12.50;4.53;;;27.50;91.80;;;;;;5056114;28;20449;-75
2022/09/06 12:17:05;;;;;;;8.02;3.83;;;27.50;92.30;;;;;;5056460;28;20063;-73
2022/09/06 12:19:42;;;;;;;8.95;4.22;;;27.50;92.10;;;;;;5023573;28;20053;-75
2022/09/06 12:22:28;;;;;;;6.70;4.00;;;27.30;92.20;;;;;;5056327;28;20369;-74
2022/09/06 12:25:15;;;;;;;10.40;4.18;;;27.20;92.20;;;;;;5055707;28;20041;-73
2022/09/06 12:27:53;;;;;;;11.05;4.70;;;27.30;92.40;;;;;;5055537;28;20036;-74
2022/09/06 12:30:36;;;;;;;6.90;4.13;;;27.30;92.60;;;;;;5055643;28;20056;-74
2022/09/06 12:33:12;;;;;;;12.85;4.68;;;27.40;92.40;;;;;;5055640;28;20064;-75
2022/09/06 12:35:38;;;;;;;7.43;4.45;;;27.50;92.00;;;;;;5055808;28;20056;-74
2022/09/06 12:38:12;;;;;;;11.63;4.15;;;27.40;91.80;;;;;;5056361;28;20052;-74
2022/09/06 12:40:44;;;;;;;7.82;3.83;;;27.40;92.00;;;;;;5055758;28;20076;-74
2022/09/06 12:43:12;;;;;;;8.98;3.83;;;27.40;91.80;;;;;;5056044;28;20048;-74
2022/09/06 12:45:45;;;;;;;8.18;3.60;;;27.50;91.80;;;;;;5055698;28;20079;-73
2022/09/06 12:48:24;;;;;;;11.38;4.65;;;27.70;92.10;;;;;;5055730;28;20045;-73
2022/09/06 12:51:18;;;;;;;8.45;4.05;;;27.70;91.70;;;;;;5056186;28;20108;-75
2022/09/06 12:53:56;;;;;;;6.28;3.53;;;27.80;91.40;;;;;;5055633;28;20052;-75
2022/09/06 12:56:24;;;;;;;16.15;3.90;;;27.90;91.40;;;;;;5055691;28;20091;-74
2022/09/06 12:58:49;;;;;;;19.98;3.42;;;28.10;91.60;;;;;;5055310;28;20073;-74
2022/09/06 13:01:28;;;;;;;8.02;3.50;;;28.10;91.30;;;;;;5055806;28;20076;-73